Time;durP1;ratioP1;P1;durP2;ratioP2;P2;SDS_P1;SDS_P2;PMS_P1;PMS_P2;Temp;Humidity;BMP_temperature;BMP_pressure;BME280_temperature;BME280_humidity;BME280_pressure;Samples;Min_cycle;Max_cycle;Signal;HPM_P1;HPM_P2
2024/03/20 00:01:33;;;;;;;;;;;;;;;1.32;88.34;102254.66;5076909;28;20379;-64
2024/03/20 00:03:59;;;;;;;;;;;;;;;1.19;89.38;102249.09;5074167;28;19927;-67
2024/03/20 00:06:24;;;;;;;;;;;;;;;1.10;90.05;102246.00;5057290;28;20418;-64
2024/03/20 00:08:50;;;;;;;;;;;;;;;1.04;90.48;102243.63;5076349;28;19921;-67
2024/03/20 00:11:15;;;;;;;;;;;;;;;1.03;90.79;102247.19;5078677;28;19973;-68
2024/03/20 00:13:41;;;;;;;;;;;;;;;1.06;90.78;102240.03;5077914;28;20333;-65
2024/03/20 00:16:06;;;;;;;;;;;;;;;1.06;90.99;102240.03;5077787;28;19927;-63
2024/03/20 00:18:32;;;;;;;;;;;;;;;1.00;91.41;102242.06;5079289;28;19920;-65
2024/03/20 00:20:58;;;;;;;;;;;;;;;0.92;91.79;102239.78;5079384;28;20017;-70
2024/03/20 00:23:23;;;;;;;;;;;;;;;0.89;92.28;102243.38;5077479;28;19921;-65
2024/03/20 00:25:50;;;;;;;;;;;;;;;0.88;92.40;102231.19;5080180;28;19924;-64
2024/03/20 00:28:15;;;;;;;;;;;;;;;0.86;92.54;102229.50;5077911;28;19924;-65
2024/03/20 00:30:41;;;;;;;;;;;;;;;0.87;92.65;102237.34;5076309;28;19927;-67
2024/03/20 00:33:06;;;;;;;;;;;;;;;0.85;93.16;102228.66;5074264;28;19927;-64
2024/03/20 00:35:34;;;;;;;;;;;;;;;0.84;93.32;102232.22;5074287;28;19920;-65
2024/03/20 00:38:00;;;;;;;;;;;;;;;0.84;93.83;102226.97;5074249;28;19925;-67
2024/03/20 00:40:25;;;;;;;;;;;;;;;0.85;93.45;102231.28;5074108;28;20011;-67
2024/03/20 00:42:50;;;;;;;;;;;;;;;0.88;93.80;102228.56;5073104;28;19927;-66
2024/03/20 00:45:16;;;;;;;;;;;;;;;0.95;93.35;102230.94;5074215;28;19927;-66
2024/03/20 00:47:41;;;;;;;;;;;;;;;1.02;93.52;102230.59;5074145;28;19920;-66
2024/03/20 00:50:07;;;;;;;;;;;;;;;1.06;93.36;102229.53;5074438;28;19927;-65
2024/03/20 00:52:32;;;;;;;;;;;;;;;1.12;92.87;102236.28;5074161;28;19927;-65
2024/03/20 00:54:57;;;;;;;;;;;;;;;1.20;93.21;102228.97;5074968;28;19946;-66
2024/03/20 00:57:24;;;;;;;;;;;;;;;1.32;92.51;102227.56;5077861;28;19960;-65
2024/03/20 00:59:50;;;;;;;;;;;;;;;1.41;92.33;102225.38;5074417;28;19924;-70
2024/03/20 01:02:15;;;;;;;;;;;;;;;1.51;91.94;102217.94;5074254;28;19930;-66
2024/03/20 01:04:40;;;;;;;;;;;;;;;1.57;91.75;102227.31;5075586;28;19935;-67
2024/03/20 01:07:06;;;;;;;;;;;;;;;1.63;90.66;102227.03;5074003;28;20326;-69
2024/03/20 01:09:31;;;;;;;;;;;;;;;1.67;90.47;102220.72;5073941;28;19921;-67
2024/03/20 01:11:56;;;;;;;;;;;;;;;1.70;90.18;102223.22;5071810;28;19959;-68
2024/03/20 01:14:22;;;;;;;;;;;;;;;1.68;90.58;102217.16;5073141;28;19920;-66
2024/03/20 01:16:49;;;;;;;;;;;;;;;1.63;90.87;102214.75;5073500;28;19925;-66
2024/03/20 01:19:14;;;;;;;;;;;;;;;1.62;91.02;102214.84;5072443;28;19963;-67
2024/03/20 01:21:40;;;;;;;;;;;;;;;1.60;91.12;102212.28;5073736;28;19978;-68
2024/03/20 01:24:06;;;;;;;;;;;;;;;1.63;91.40;102211.28;5055466;28;20014;-68
2024/03/20 01:26:31;;;;;;;;;;;;;;;1.68;91.75;102214.53;5073206;28;19991;-66
2024/03/20 01:28:57;;;;;;;;;;;;;;;1.74;91.00;102211.66;5088955;28;20391;-65
2024/03/20 01:31:22;;;;;;;;;;;;;;;1.77;91.42;102214.16;5072042;28;19920;-70
2024/03/20 01:33:47;;;;;;;;;;;;;;;1.79;91.36;102210.53;5073863;28;19927;-69
2024/03/20 01:36:13;;;;;;;;;;;;;;;1.80;91.18;102204.34;5073328;28;19927;-67
2024/03/20 01:38:38;;;;;;;;;;;;;;;1.83;90.98;102208.59;5073134;28;20022;-65
2024/03/20 01:41:04;;;;;;;;;;;;;;;1.84;91.33;102213.78;5072946;28;19920;-66
2024/03/20 01:43:29;;;;;;;;;;;;;;;1.87;91.06;102204.91;5072763;28;19929;-68
2024/03/20 01:45:54;;;;;;;;;;;;;;;1.89;91.04;102208.31;5073072;28;20038;-66
2024/03/20 01:48:20;;;;;;;;;;;;;;;1.92;90.96;102212.56;5072021;28;19987;-69
2024/03/20 01:50:45;;;;;;;;;;;;;;;1.94;91.10;102210.72;5073679;28;20331;-67
2024/03/20 01:53:12;;;;;;;;;;;;;;;1.96;91.01;102198.38;5073203;28;19920;-65
2024/03/20 01:55:38;;;;;;;;;;;;;;;2.00;90.91;102200.78;5074356;28;19927;-66
2024/03/20 01:58:03;;;;;;;;;;;;;;;1.98;91.22;102202.63;5074633;28;19920;-65
2024/03/20 02:00:28;;;;;;;;;;;;;;;1.98;90.55;102207.88;5074668;28;19959;-68
2024/03/20 02:02:55;;;;;;;;;;;;;;;2.03;90.30;102207.69;5073313;28;20325;-69
2024/03/20 02:05:21;;;;;;;;;;;;;;;2.04;89.78;102212.88;5072686;28;20012;-64
2024/03/20 02:07:46;;;;;;;;;;;;;;;2.04;89.94;102204.97;5073941;28;20057;-65
2024/03/20 02:10:11;;;;;;;;;;;;;;;2.06;89.47;102200.50;5076620;28;19920;-63
2024/03/20 02:12:37;;;;;;;;;;;;;;;2.09;89.77;102210.88;5077646;28;19921;-67
2024/03/20 02:15:08;;;;;;;;;;;;;;;2.10;89.14;102214.34;5078713;28;19920;-63
2024/03/20 02:17:34;;;;;;;;;;;;;;;2.10;89.56;102207.31;5079118;28;19921;-68
2024/03/20 02:19:59;;;;;;;;;;;;;;;2.10;89.66;102202.06;5076901;28;19924;-66
2024/03/20 02:22:25;;;;;;;;;;;;;;;2.12;89.86;102196.72;5075456;28;19927;-67
2024/03/20 02:24:50;;;;;;;;;;;;;;;2.14;89.93;102193.09;5075646;28;19966;-70
2024/03/20 02:27:16;;;;;;;;;;;;;;;2.16;89.93;102199.13;5074649;28;19939;-67
2024/03/20 02:29:41;;;;;;;;;;;;;;;2.18;89.92;102199.91;5073058;28;20325;-63
2024/03/20 02:32:06;;;;;;;;;;;;;;;2.16;89.88;102196.50;5073137;28;19920;-69
2024/03/20 02:34:32;;;;;;;;;;;;;;;2.19;89.85;102195.50;5073003;28;19920;-65
2024/03/20 02:36:57;;;;;;;;;;;;;;;2.20;90.09;102201.59;5073127;28;19920;-67
2024/03/20 02:39:23;;;;;;;;;;;;;;;2.21;90.17;102195.41;5072510;28;19935;-64
2024/03/20 02:41:48;;;;;;;;;;;;;;;2.20;90.37;102193.72;5073862;28;19921;-63
2024/03/20 02:44:14;;;;;;;;;;;;;;;2.19;90.54;102198.13;5072090;28;20405;-70
2024/03/20 02:46:40;;;;;;;;;;;;;;;2.17;90.69;102203.47;5077606;28;19925;-67
2024/03/20 02:49:05;;;;;;;;;;;;;;;2.18;90.94;102199.91;5078487;28;19927;-65
2024/03/20 02:51:30;;;;;;;;;;;;;;;2.24;91.02;102200.53;5072887;28;19963;-63
2024/03/20 02:53:56;;;;;;;;;;;;;;;2.26;90.63;102194.28;5055968;28;19920;-67
2024/03/20 02:56:21;;;;;;;;;;;;;;;2.27;90.54;102187.22;5072386;28;19970;-68
2024/03/20 02:58:46;;;;;;;;;;;;;;;2.26;90.84;102185.53;5073450;28;19970;-69
2024/03/20 03:01:12;;;;;;;;;;;;;;;2.25;90.92;102194.34;5073302;28;19951;-67
2024/03/20 03:03:37;;;;;;;;;;;;;;;2.20;90.96;102191.09;5078322;28;20399;-64
2024/03/20 03:06:03;;;;;;;;;;;;;;;2.22;91.39;102191.88;5077972;28;19985;-67
2024/03/20 03:08:28;;;;;;;;;;;;;;;2.25;91.70;102189.09;5072709;28;20012;-66
2024/03/20 03:10:55;;;;;;;;;;;;;;;2.24;91.99;102187.38;5072757;28;20307;-66
2024/03/20 03:13:20;;;;;;;;;;;;;;;2.25;92.07;102189.94;5054770;28;20343;-67
2024/03/20 03:15:45;;;;;;;;;;;;;;;2.31;92.29;102183.53;5072036;28;19921;-68
2024/03/20 03:18:11;;;;;;;;;;;;;;;2.31;93.00;102184.38;5072316;28;19920;-71
2024/03/20 03:20:36;;;;;;;;;;;;;;;2.32;92.78;102182.63;5075441;28;19943;-69
2024/03/20 03:23:02;;;;;;;;;;;;;;;2.34;93.10;102178.16;5056784;28;20019;-68
2024/03/20 03:25:28;;;;;;;;;;;;;;;2.36;93.15;102176.28;5077645;28;19925;-65
2024/03/20 03:27:53;;;;;;;;;;;;;;;2.39;92.62;102177.00;5080317;28;19925;-68
2024/03/20 03:30:19;;;;;;;;;;;;;;;2.43;92.91;102177.69;5072624;28;20299;-67
2024/03/20 03:32:44;;;;;;;;;;;;;;;2.42;93.08;102182.09;5072199;28;20303;-62
2024/03/20 03:35:10;;;;;;;;;;;;;;;2.38;93.16;102170.03;5074653;28;20401;-64
2024/03/20 03:37:35;;;;;;;;;;;;;;;2.38;92.94;102175.28;5075932;28;20314;-66
2024/03/20 03:40:01;;;;;;;;;;;;;;;2.37;93.62;102180.63;5075508;28;19921;-66
2024/03/20 03:42:28;;;;;;;;;;;;;;;2.34;94.53;102172.88;5075529;28;19974;-70
2024/03/20 03:44:54;;;;;;;;;;;;;;;2.36;94.48;102178.91;5058715;28;19960;-64
2024/03/20 03:47:19;;;;;;;;;;;;;;;2.38;94.36;102169.19;5074888;28;19931;-66
2024/03/20 03:49:44;;;;;;;;;;;;;;;2.42;94.15;102176.84;5075534;28;19994;-67
2024/03/20 03:52:10;;;;;;;;;;;;;;;2.42;94.63;102179.47;5076259;28;20414;-65
2024/03/20 03:54:35;;;;;;;;;;;;;;;2.43;94.18;102188.19;5075498;28;20388;-68
2024/03/20 03:57:00;;;;;;;;;;;;;;;2.38;95.23;102175.28;5075258;28;19990;-65
2024/03/20 03:59:26;;;;;;;;;;;;;;;2.36;95.36;102181.56;5075005;28;19924;-67
2024/03/20 04:01:51;;;;;;;;;;;;;;;2.34;94.45;102186.88;5075293;28;19920;-67
2024/03/20 04:04:17;;;;;;;;;;;;;;;2.37;94.33;102188.50;5074165;28;20015;-70
2024/03/20 04:06:43;;;;;;;;;;;;;;;2.41;94.67;102184.81;5074092;28;19921;-66
2024/03/20 04:09:10;;;;;;;;;;;;;;;2.44;94.12;102190.75;5075227;28;19920;-65
2024/03/20 04:11:37;;;;;;;;;;;;;;;2.47;94.77;102192.38;5074975;28;19946;-66
2024/03/20 04:14:02;;;;;;;;;;;;;;;2.51;93.88;102190.44;5073848;28;20455;-64
2024/03/20 04:16:28;;;;;;;;;;;;;;;2.51;93.52;102191.31;5075345;28;19967;-70
2024/03/20 04:18:53;;;;;;;;;;;;;;;2.52;94.56;102195.63;5056629;28;19920;-67
2024/03/20 04:21:20;;;;;;;;;;;;;;;2.51;94.53;102199.19;5073277;28;20390;-69
2024/03/20 04:23:46;;;;;;;;;;;;;;;2.47;94.48;102190.59;5075345;28;19931;-70
2024/03/20 04:26:12;;;;;;;;;;;;;;;2.46;93.90;102199.41;5075233;28;19924;-70
2024/03/20 04:28:37;;;;;;;;;;;;;;;2.47;94.02;102197.63;5075361;28;19931;-72
2024/03/20 04:31:05;;;;;;;;;;;;;;;2.45;94.31;102200.34;5074811;28;19926;-69
2024/03/20 04:33:30;;;;;;;;;;;;;;;2.48;94.01;102208.09;5074584;28;19932;-70
2024/03/20 04:35:56;;;;;;;;;;;;;;;2.51;93.86;102209.72;5074228;28;19920;-68
2024/03/20 04:38:21;;;;;;;;;;;;;;;2.47;93.62;102202.91;5074128;28;19927;-71
2024/03/20 04:40:46;;;;;;;;;;;;;;;2.41;94.24;102201.44;5073135;28;19924;-73
2024/03/20 04:43:12;;;;;;;;;;;;;;;2.38;94.38;102206.00;5072982;28;19921;-69
2024/03/20 04:45:37;;;;;;;;;;;;;;;2.35;94.92;102219.28;5076428;28;19990;-70
2024/03/20 04:48:02;;;;;;;;;;;;;;;2.33;94.65;102213.25;5075474;28;19921;-74
2024/03/20 04:50:28;;;;;;;;;;;;;;;2.34;94.72;102213.19;5074311;28;20248;-70
2024/03/20 04:52:53;;;;;;;;;;;;;;;2.39;94.80;102211.16;5074650;28;19989;-70
2024/03/20 04:55:18;;;;;;;;;;;;;;;2.34;94.97;102213.19;5079836;28;20354;-68
2024/03/20 04:57:44;;;;;;;;;;;;;;;2.31;94.54;102209.81;5059007;28;20273;-68
2024/03/20 05:00:14;;;;;;;;;;;;;;;2.28;95.29;102216.06;5073126;28;20018;-68
2024/03/20 05:02:39;;;;;;;;;;;;;;;2.25;94.87;102207.50;5074387;28;20132;-66
2024/03/20 05:05:05;;;;;;;;;;;;;;;2.31;94.93;102207.19;5074953;28;20399;-68
2024/03/20 05:07:30;;;;;;;;;;;;;;;2.41;94.12;102211.09;5072902;28;19927;-68
2024/03/20 05:09:56;;;;;;;;;;;;;;;2.43;93.98;102209.25;5073067;28;19966;-67
2024/03/20 05:12:21;;;;;;;;;;;;;;;2.47;93.14;102214.25;5071674;28;19974;-65
2024/03/20 05:14:47;;;;;;;;;;;;;;;2.50;92.45;102215.91;5070591;28;19964;-69
2024/03/20 05:17:12;;;;;;;;;;;;;;;2.52;92.25;102208.78;5055192;28;19970;-68
2024/03/20 05:19:37;;;;;;;;;;;;;;;2.54;92.70;102216.59;5072950;28;20418;-67
2024/03/20 05:22:02;;;;;;;;;;;;;;;2.58;92.85;102216.34;5072270;28;19927;-66
2024/03/20 05:24:29;;;;;;;;;;;;;;;2.63;92.09;102214.38;5072225;28;19932;-67
2024/03/20 05:26:55;;;;;;;;;;;;;;;2.70;92.57;102221.03;5072631;28;20011;-64
2024/03/20 05:29:20;;;;;;;;;;;;;;;2.74;91.77;102217.31;5072966;28;19978;-65
2024/03/20 05:31:46;;;;;;;;;;;;;;;2.83;91.84;102216.00;5071623;28;19920;-64
2024/03/20 05:34:11;;;;;;;;;;;;;;;2.89;91.55;102215.72;5072380;28;19920;-67
2024/03/20 05:36:37;;;;;;;;;;;;;;;2.91;90.76;102219.13;5073233;28;19954;-71
2024/03/20 05:39:03;;;;;;;;;;;;;;;2.92;90.99;102212.06;5072387;28;19920;-66
2024/03/20 05:41:28;;;;;;;;;;;;;;;2.92;90.39;102204.16;5072412;28;19935;-67
2024/03/20 05:43:54;;;;;;;;;;;;;;;2.85;89.70;102205.38;5070853;28;19920;-67
2024/03/20 05:46:19;;;;;;;;;;;;;;;2.84;89.65;102208.94;5072067;28;19924;-68
2024/03/20 05:48:44;;;;;;;;;;;;;;;2.87;89.58;102209.63;5071912;28;19920;-69
2024/03/20 05:51:10;;;;;;;;;;;;;;;2.86;88.60;102209.72;5054540;28;19950;-71
2024/03/20 05:53:35;;;;;;;;;;;;;;;2.84;88.15;102214.22;5072367;28;19920;-69
2024/03/20 05:56:00;;;;;;;;;;;;;;;2.80;87.69;102217.00;5071725;28;19920;-68
2024/03/20 05:58:26;;;;;;;;;;;;;;;2.84;87.58;102212.44;5087029;28;19973;-68
2024/03/20 06:00:51;;;;;;;;;;;;;;;2.92;87.30;102222.59;5070749;28;20010;-69
2024/03/20 06:03:18;;;;;;;;;;;;;;;2.97;87.16;102216.16;5070735;28;19959;-69
2024/03/20 06:05:43;;;;;;;;;;;;;;;3.11;87.98;102213.66;5072266;28;19928;-70
2024/03/20 06:08:09;;;;;;;;;;;;;;;3.27;87.95;102218.16;5070612;28;20311;-71
2024/03/20 06:10:34;;;;;;;;;;;;;;;3.35;87.00;102216.81;5071766;28;19920;-71
2024/03/20 06:12:59;;;;;;;;;;;;;;;3.38;86.18;102223.69;5071666;28;19928;-68
2024/03/20 06:15:26;;;;;;;;;;;;;;;3.34;84.28;102217.72;5069917;28;19924;-68
2024/03/20 06:17:51;;;;;;;;;;;;;;;3.28;85.01;102220.69;5072232;28;20471;-69
2024/03/20 06:20:17;;;;;;;;;;;;;;;3.33;85.35;102225.72;5071580;28;19938;-72
2024/03/20 06:22:42;;;;;;;;;;;;;;;3.39;85.20;102217.50;5071914;28;20405;-69
2024/03/20 06:25:08;;;;;;;;;;;;;;;3.45;84.62;102216.31;5075883;28;20411;-68
2024/03/20 06:27:34;;;;;;;;;;;;;;;3.45;84.09;102216.31;5074698;28;20023;-69
2024/03/20 06:29:59;;;;;;;;;;;;;;;3.53;83.24;102215.00;5071599;28;20411;-70
2024/03/20 06:32:25;;;;;;;;;;;;;;;3.62;84.04;102213.63;5071582;28;19920;-71
2024/03/20 06:34:51;;;;;;;;;;;;;;;3.61;81.94;102217.22;5078721;28;19924;-69
2024/03/20 06:37:17;;;;;;;;;;;;;;;3.65;83.02;102203.78;5071827;28;20398;-68
2024/03/20 06:39:42;;;;;;;;;;;;;;;3.73;81.71;102206.84;5069709;28;20034;-67
2024/03/20 06:42:16;;;;;;;;;;;;;;;3.81;81.42;102209.09;5086700;28;20290;-67
2024/03/20 06:44:41;;;;;;;;;;;;;;;3.94;81.94;102202.19;5071613;28;19920;-67
2024/03/20 06:47:07;;;;;;;;;;;;;;;4.11;82.05;102209.19;5071535;28;20421;-68
2024/03/20 06:49:33;;;;;;;;;;;;;;;4.25;81.11;102211.88;5071266;28;19921;-70
2024/03/20 06:51:59;;;;;;;;;;;;;;;4.21;77.75;102207.72;5071341;28;19920;-69
2024/03/20 06:54:26;;;;;;;;;;;;;;;4.18;77.81;102207.03;5071178;28;20322;-70
2024/03/20 06:56:58;;;;;;;;;;;;;;;4.15;78.92;102208.06;5072122;28;19920;-69
2024/03/20 06:59:24;;;;;;;;;;;;;;;4.13;76.70;102217.00;5074187;28;19956;-67
2024/03/20 07:01:49;;;;;;;;;;;;;;;4.11;77.59;102216.25;5073289;28;19963;-70
2024/03/20 07:04:14;;;;;;;;;;;;;;;4.14;77.85;102208.16;5070015;28;20427;-70
2024/03/20 07:06:40;;;;;;;;;;;;;;;4.17;78.29;102205.34;5070741;28;20011;-70
2024/03/20 07:09:08;;;;;;;;;;;;;;;4.15;77.36;102207.22;5071337;28;19955;-70
2024/03/20 07:11:33;;;;;;;;;;;;;;;4.09;77.23;102203.13;5075423;28;20379;-67
2024/03/20 07:13:58;;;;;;;;;;;;;;;4.15;77.56;102207.22;5075582;28;19920;-68
2024/03/20 07:16:24;;;;;;;;;;;;;;;4.24;77.62;102212.81;5075592;28;20391;-66
2024/03/20 07:18:49;;;;;;;;;;;;;;;4.30;76.58;102211.59;5076064;28;19927;-68
2024/03/20 07:21:15;;;;;;;;;;;;;;;4.25;76.38;102216.28;5080754;28;20022;-68
2024/03/20 07:23:41;;;;;;;;;;;;;;;4.27;76.73;102211.78;5077264;28;20395;-68
2024/03/20 07:26:06;;;;;;;;;;;;;;;4.37;77.70;102217.41;5075957;28;20475;-67
2024/03/20 07:28:33;;;;;;;;;;;;;;;4.51;77.15;102210.41;5075356;28;19924;-68
2024/03/20 07:30:58;;;;;;;;;;;;;;;4.55;74.94;102213.69;5075910;28;19920;-71
2024/03/20 07:33:27;;;;;;;;;;;;;;;4.51;74.73;102215.66;5078375;28;19924;-71
2024/03/20 07:35:55;;;;;;;;;;;;;;;4.51;74.57;102214.81;5079784;28;19942;-66
2024/03/20 07:38:20;;;;;;;;;;;;;;;4.55;74.59;102211.91;5074618;28;19928;-69
2024/03/20 07:40:55;;;;;;;;;;;;;;;4.72;74.80;102215.38;5074440;28;19920;-67
2024/03/20 07:43:21;;;;;;;;;;;;;;;4.82;73.18;102211.25;5076139;28;19931;-67
2024/03/20 07:45:46;;;;;;;;;;;;;;;4.86;72.63;102210.97;5075142;28;19921;-66
2024/03/20 07:48:12;;;;;;;;;;;;;;;4.85;72.15;102208.44;5077874;28;19927;-69
2024/03/20 07:50:38;;;;;;;;;;;;;;;4.90;73.78;102201.09;5056820;28;19960;-70
2024/03/20 07:53:04;;;;;;;;;;;;;;;4.95;70.90;102204.31;5074864;28;19920;-71
2024/03/20 07:55:30;;;;;;;;;;;;;;;5.05;72.73;102201.97;5074702;28;19920;-67
2024/03/20 07:57:56;;;;;;;;;;;;;;;5.17;71.79;102202.06;5073445;28;20357;-71
2024/03/20 08:00:28;;;;;;;;;;;;;;;5.23;70.54;102201.72;5070860;28;20324;-66
2024/03/20 08:02:56;;;;;;;;;;;;;;;5.40;70.58;102205.13;5073221;28;20378;-65
2024/03/20 08:05:22;;;;;;;;;;;;;;;5.46;70.04;102200.31;5072649;28;19924;-66
2024/03/20 08:07:48;;;;;;;;;;;;;;;5.47;70.60;102203.78;5071673;28;20597;-67
2024/03/20 08:10:13;;;;;;;;;;;;;;;5.58;69.35;102207.50;5074348;28;19921;-70
2024/03/20 08:12:39;;;;;;;;;;;;;;;5.60;68.43;102212.69;5072601;28;20362;-70
2024/03/20 08:15:05;;;;;;;;;;;;;;;5.29;67.45;102172.28;5073680;28;20379;-65
2024/03/20 08:17:30;;;;;;;;;;;;;;;5.42;67.79;102217.28;5072540;28;20018;-67
2024/03/20 08:19:56;;;;;;;;;;;;;;;5.45;67.53;102214.47;5073878;28;20446;-65
2024/03/20 08:22:22;;;;;;;;;;;;;;;5.52;67.57;102209.66;5072452;28;19920;-70
2024/03/20 08:24:47;;;;;;;;;;;;;;;5.75;67.61;102209.06;5056108;28;19973;-73
2024/03/20 08:27:12;;;;;;;;;;;;;;;5.78;66.79;102211.53;5075657;28;19924;-67
2024/03/20 08:29:38;;;;;;;;;;;;;;;5.62;66.21;102207.28;5074884;28;19921;-71
2024/03/20 08:32:05;;;;;;;;;;;;;;;5.42;67.46;102205.88;5056555;28;19927;-69
2024/03/20 08:34:30;;;;;;;;;;;;;;;5.36;68.99;102200.97;5073595;28;20386;-68
2024/03/20 08:36:56;;;;;;;;;;;;;;;5.39;68.97;102206.06;5075007;28;20062;-70
2024/03/20 08:39:21;;;;;;;;;;;;;;;5.47;69.62;102198.50;5074774;28;19920;-70
2024/03/20 08:41:46;;;;;;;;;;;;;;;5.44;68.53;102202.19;5072291;28;20371;-70
2024/03/20 08:44:12;;;;;;;;;;;;;;;5.62;69.33;102204.66;5071789;28;20373;-70
2024/03/20 08:46:41;;;;;;;;;;;;;;;5.68;68.87;102193.69;5074010;28;20271;-70
2024/03/20 08:49:08;;;;;;;;;;;;;;;5.54;67.27;102192.78;5073336;28;19921;-71
2024/03/20 08:51:33;;;;;;;;;;;;;;;5.34;69.16;102189.66;5072372;28;19956;-69
2024/03/20 08:53:59;;;;;;;;;;;;;;;5.36;69.56;102193.88;5071800;28;19970;-71
2024/03/20 08:56:24;;;;;;;;;;;;;;;5.45;69.58;102198.59;5072800;28;19946;-69
2024/03/20 08:58:50;;;;;;;;;;;;;;;5.57;69.97;102200.50;5074183;28;19925;-70
2024/03/20 09:01:16;;;;;;;;;;;;;;;5.67;69.36;102194.63;5074311;28;19920;-69
2024/03/20 09:03:42;;;;;;;;;;;;;;;5.56;68.98;102196.16;5074982;28;19921;-69
2024/03/20 09:06:07;;;;;;;;;;;;;;;5.65;68.66;102194.72;5072569;28;20015;-71
2024/03/20 09:08:33;;;;;;;;;;;;;;;5.84;68.13;102197.09;5073562;28;20360;-70
2024/03/20 09:10:58;;;;;;;;;;;;;;;5.95;66.96;102193.78;5073200;28;19920;-69
2024/03/20 09:13:24;;;;;;;;;;;;;;;5.95;66.16;102194.63;5071670;28;19932;-70
2024/03/20 09:15:49;;;;;;;;;;;;;;;5.81;66.52;102190.19;5071347;28;19920;-69
2024/03/20 09:18:14;;;;;;;;;;;;;;;5.88;68.46;102196.78;5073196;28;20307;-69
2024/03/20 09:20:41;;;;;;;;;;;;;;;5.97;68.13;102194.53;5072640;28;19924;-70
2024/03/20 09:23:07;;;;;;;;;;;;;;;6.00;68.60;102194.31;5072620;28;20419;-70
2024/03/20 09:25:33;;;;;;;;;;;;;;;5.99;67.74;102195.28;5073175;28;19925;-71
2024/03/20 09:28:00;;;;;;;;;;;;;;;5.94;66.72;102200.00;5072332;28;19970;-69
2024/03/20 09:30:25;;;;;;;;;;;;;;;5.81;66.93;102199.91;5072682;28;20022;-68
2024/03/20 09:32:51;;;;;;;;;;;;;;;5.56;68.39;102200.59;5072689;28;20419;-69
2024/03/20 09:35:16;;;;;;;;;;;;;;;5.57;69.81;102202.31;5071364;28;19920;-72
2024/03/20 09:37:45;;;;;;;;;;;;;;;5.76;69.54;102197.53;5070539;28;20465;-69
2024/03/20 09:40:12;;;;;;;;;;;;;;;5.92;68.86;102199.25;5072203;28;19928;-71
2024/03/20 09:42:38;;;;;;;;;;;;;;;5.99;68.62;102192.63;5070864;28;20428;-71
2024/03/20 09:45:04;;;;;;;;;;;;;;;6.08;68.98;102192.06;5072852;28;20358;-69
2024/03/20 09:47:31;;;;;;;;;;;;;;;6.03;68.11;102199.41;5072584;28;20355;-71
2024/03/20 09:49:59;;;;;;;;;;;;;;;6.02;67.18;102187.13;5075968;28;19920;-69
2024/03/20 09:52:25;;;;;;;;;;;;;;;6.06;68.90;102186.00;5072750;28;19944;-69
2024/03/20 09:54:51;;;;;;;;;;;;;;;6.15;68.81;102190.72;5072378;28;20425;-69
2024/03/20 09:57:17;;;;;;;;;;;;;;;6.22;67.67;102186.72;5071749;28;20444;-67
2024/03/20 09:59:47;;;;;;;;;;;;;;;6.25;67.24;102191.81;5071962;28;19924;-69
2024/03/20 10:02:12;;;;;;;;;;;;;;;6.12;68.25;102182.97;5072407;28;19926;-70
2024/03/20 10:04:39;;;;;;;;;;;;;;;6.21;68.91;102190.31;5070978;28;19920;-70
2024/03/20 10:07:15;;;;;;;;;;;;;;;6.28;67.97;102188.94;5071825;28;19931;-71
2024/03/20 10:09:41;;;;;;;;;;;;;;;6.16;67.65;102185.31;5070821;28;19924;-70
2024/03/20 10:12:10;;;;;;;;;;;;;;;6.09;69.20;102188.47;5071598;28;19920;-70
2024/03/20 10:14:36;;;;;;;;;;;;;;;6.25;68.93;102178.56;5072426;28;19920;-71
2024/03/20 10:17:11;;;;;;;;;;;;;;;6.41;68.07;102186.38;5071331;28;19927;-69
2024/03/20 10:19:37;;;;;;;;;;;;;;;6.66;68.33;102185.59;5085689;28;19920;-70
2024/03/20 10:22:03;;;;;;;;;;;;;;;6.78;66.85;102188.25;5072319;28;20335;-71
2024/03/20 10:24:31;;;;;;;;;;;;;;;6.76;67.31;102189.31;5078255;28;19925;-71
2024/03/20 10:26:56;;;;;;;;;;;;;;;6.58;65.36;102185.25;5074388;28;20303;-69
2024/03/20 10:29:24;;;;;;;;;;;;;;;6.29;67.33;102193.28;5070406;28;19921;-70
2024/03/20 10:31:53;;;;;;;;;;;;;;;6.16;68.87;102192.41;5071520;28;20375;-71
2024/03/20 10:34:20;;;;;;;;;;;;;;;6.01;68.76;102191.59;5071407;28;19928;-68
2024/03/20 10:36:46;;;;;;;;;;;;;;;5.71;69.12;102189.06;5071608;28;19927;-69
2024/03/20 10:39:23;;;;;;;;;;;;;;;5.60;71.63;102184.44;5071433;28;20038;-69
2024/03/20 10:41:49;;;;;;;;;;;;;;;5.61;71.52;102190.59;5071574;28;19920;-68
2024/03/20 10:44:15;;;;;;;;;;;;;;;5.54;72.00;102189.28;5070600;28;20406;-71
2024/03/20 10:46:43;;;;;;;;;;;;;;;5.47;72.97;102185.28;5071328;28;19925;-71
2024/03/20 10:49:10;;;;;;;;;;;;;;;5.34;73.73;102189.66;5071292;28;19971;-70
2024/03/20 10:51:35;;;;;;;;;;;;;;;5.32;73.94;102188.91;5071277;28;19920;-70
2024/03/20 10:54:01;;;;;;;;;;;;;;;5.35;73.72;102183.41;5071472;28;20027;-69
2024/03/20 10:56:26;;;;;;;;;;;;;;;5.41;73.96;102183.03;5071241;28;19982;-65
2024/03/20 10:59:02;;;;;;;;;;;;;;;5.43;73.71;102184.63;5071293;28;20362;-70
2024/03/20 11:01:27;;;;;;;;;;;;;;;5.34;73.90;102181.72;5070311;28;19921;-65
2024/03/20 11:03:56;;;;;;;;;;;;;;;5.34;74.43;102176.44;5069659;28;19962;-66
2024/03/20 11:06:31;;;;;;;;;;;;;;;5.35;74.33;102167.56;5071112;28;19920;-69
2024/03/20 11:08:56;;;;;;;;;;;;;;;5.35;74.46;102163.13;5069671;28;19920;-67
2024/03/20 11:11:25;;;;;;;;;;;;;;;5.43;74.79;102167.94;5070045;28;19997;-69
2024/03/20 11:13:51;;;;;;;;;;;;;;;5.48;74.01;102168.50;5063162;28;19966;-70
2024/03/20 11:16:23;;;;;;;;;;;;;;;5.43;74.59;102167.94;5069644;28;19921;-69
2024/03/20 11:18:56;;;;;;;;;;;;;;;5.32;75.03;102170.41;5071198;28;19921;-70
2024/03/20 11:21:21;;;;;;;;;;;;;;;5.27;76.22;102179.47;5071004;28;19920;-70
2024/03/20 11:23:47;;;;;;;;;;;;;;;5.32;77.14;102170.41;5071290;28;19920;-69
2024/03/20 11:26:12;;;;;;;;;;;;;;;5.36;76.36;102171.91;5071279;28;19969;-69
2024/03/20 11:28:38;;;;;;;;;;;;;;;5.35;76.38;102172.84;5071587;28;19920;-69
2024/03/20 11:31:03;;;;;;;;;;;;;;;5.41;76.15;102169.81;5071275;28;20472;-70
2024/03/20 11:33:28;;;;;;;;;;;;;;;5.45;75.88;102169.53;5071035;28;20033;-70
2024/03/20 11:35:55;;;;;;;;;;;;;;;5.41;76.08;102162.75;5047983;28;20474;-68
2024/03/20 11:38:28;;;;;;;;;;;;;;;5.32;76.65;102170.41;5051557;28;20353;-67
2024/03/20 11:40:56;;;;;;;;;;;;;;;5.26;77.22;102166.34;5064063;28;19921;-67
2024/03/20 11:43:24;;;;;;;;;;;;;;;5.26;77.30;102172.47;5071363;28;19970;-70
2024/03/20 11:45:50;;;;;;;;;;;;;;;5.19;77.45;102181.69;5071079;28;20015;-70
2024/03/20 11:48:15;;;;;;;;;;;;;;;5.14;78.32;102183.78;5069826;28;20018;-68
2024/03/20 11:50:41;;;;;;;;;;;;;;;5.12;77.99;102175.09;5073111;28;19924;-67
2024/03/20 11:53:07;;;;;;;;;;;;;;;5.11;78.51;102177.84;5073437;28;19929;-66
2024/03/20 11:55:34;;;;;;;;;;;;;;;5.06;78.74;102170.19;5074560;28;19932;-71
2024/03/20 11:58:00;;;;;;;;;;;;;;;5.05;79.13;102173.78;5074036;28;19924;-67
2024/03/20 12:00:26;;;;;;;;;;;;;;;4.98;78.32;102169.81;5074031;28;19974;-67
2024/03/20 12:02:51;;;;;;;;;;;;;;;4.98;78.88;102173.31;5074659;28;19920;-66
2024/03/20 12:05:18;;;;;;;;;;;;;;;4.93;78.62;102169.25;5073691;28;19930;-70
2024/03/20 12:07:44;;;;;;;;;;;;;;;4.90;79.30;102179.97;5074047;28;19924;-68
2024/03/20 12:10:28;;;;;;;;;;;;;;;4.83;79.56;102178.63;5075290;28;19977;-70
2024/03/20 12:12:54;;;;;;;;;;;;;;;4.84;79.69;102185.63;5077629;28;19931;-76
2024/03/20 12:15:21;;;;;;;;;;;;;;;4.93;79.62;102177.16;5077301;28;19921;-70
2024/03/20 12:17:47;;;;;;;;;;;;;;;4.95;79.49;102180.56;5075312;28;19946;-67
2024/03/20 12:20:15;;;;;;;;;;;;;;;4.88;79.26;102176.56;5074457;28;19924;-68
2024/03/20 12:22:40;;;;;;;;;;;;;;;4.81;79.08;102170.81;5072950;28;19920;-73
2024/03/20 12:25:08;;;;;;;;;;;;;;;4.79;79.48;102177.13;5073326;28;19947;-70
2024/03/20 12:27:33;;;;;;;;;;;;;;;4.76;79.36;102177.31;5074720;28;19995;-67
2024/03/20 12:29:59;;;;;;;;;;;;;;;4.77;80.27;102179.84;5073344;28;20039;-70
2024/03/20 12:32:24;;;;;;;;;;;;;;;4.75;80.25;102176.47;5076162;28;19959;-69
2024/03/20 12:34:52;;;;;;;;;;;;;;;4.66;80.83;102172.59;5073067;28;19994;-67
2024/03/20 12:37:19;;;;;;;;;;;;;;;4.67;80.60;102170.78;5076117;28;20034;-66
2024/03/20 12:39:45;;;;;;;;;;;;;;;4.74;80.97;102168.63;5076351;28;20302;-68
2024/03/20 12:42:10;;;;;;;;;;;;;;;4.80;80.45;102161.19;5075314;28;20004;-65